createdAt,value
2022-11-28T00:02:22.919Z,13.80
2022-11-28T00:05:25.627Z,13.70
2022-11-28T00:08:27.707Z,13.70
2022-11-28T00:11:29.984Z,13.70
2022-11-28T00:14:31.991Z,13.70
2022-11-28T00:17:34.111Z,13.70
2022-11-28T00:20:36.509Z,13.70
2022-11-28T00:23:39.422Z,13.60
2022-11-28T00:26:42.123Z,13.70
2022-11-28T00:29:44.169Z,13.70
2022-11-28T00:32:46.262Z,13.80
2022-11-28T00:35:48.655Z,13.80
2022-11-28T00:38:53.963Z,13.80
2022-11-28T00:41:58.235Z,13.70
2022-11-28T00:45:00.458Z,13.70
2022-11-28T00:48:02.453Z,13.70
2022-11-28T00:51:15.891Z,13.60
2022-11-28T00:54:17.972Z,13.60
2022-11-28T00:57:20.023Z,13.60
2022-11-28T01:00:22.600Z,13.60
2022-11-28T01:03:24.577Z,13.50
2022-11-28T01:06:34.244Z,13.50
2022-11-28T01:09:37.015Z,13.40
2022-11-28T01:12:39.151Z,13.40
2022-11-28T01:15:42.698Z,13.40
2022-11-28T01:18:44.941Z,13.30
2022-11-28T01:21:47.677Z,13.30
2022-11-28T01:24:49.720Z,13.20
2022-11-28T01:27:51.976Z,13.20
2022-11-28T01:30:54.080Z,13.20
2022-11-28T01:34:01.335Z,13.10
2022-11-28T01:37:03.792Z,13.10
2022-11-28T01:40:06.586Z,13.00
2022-11-28T01:43:10.670Z,13.00
2022-11-28T01:46:12.875Z,13.00
2022-11-28T01:49:20.640Z,13.00
2022-11-28T01:52:24.063Z,12.90
2022-11-28T01:55:30.620Z,12.90
2022-11-28T01:58:36.164Z,12.90
2022-11-28T02:01:39.559Z,12.90
2022-11-28T02:04:43.023Z,12.90
2022-11-28T02:07:46.230Z,12.90
2022-11-28T02:10:57.098Z,12.90
2022-11-28T02:14:11.180Z,12.90
2022-11-28T02:17:28.046Z,12.90
2022-11-28T02:20:43.963Z,12.80
2022-11-28T02:24:04.516Z,12.80
2022-11-28T02:27:45.575Z,12.90
2022-11-28T02:31:09.281Z,12.80
2022-11-28T02:34:32.820Z,12.80
2022-11-28T02:37:38.490Z,12.80
2022-11-28T02:41:15.799Z,12.80
2022-11-28T02:44:27.007Z,12.70
2022-11-28T02:47:36.473Z,12.70
2022-11-28T02:50:56.061Z,12.70
2022-11-28T02:54:00.170Z,12.70
2022-11-28T02:57:03.298Z,12.60
2022-11-28T03:00:29.546Z,12.60
2022-11-28T03:03:53.119Z,12.60
2022-11-28T03:07:00.060Z,12.60
2022-11-28T03:10:39.490Z,12.50
2022-11-28T03:13:47.296Z,12.50
2022-11-28T03:17:12.360Z,12.40
2022-11-28T03:20:21.483Z,12.40
2022-11-28T03:23:39.528Z,12.40
2022-11-28T03:26:41.478Z,12.40
2022-11-28T03:29:53.116Z,12.30
2022-11-28T03:32:57.527Z,12.30
2022-11-28T03:36:16.954Z,12.40
2022-11-28T03:39:23.042Z,12.30
2022-11-28T03:42:29.555Z,12.30
2022-11-28T03:45:42.031Z,12.30
2022-11-28T03:48:48.300Z,12.20
2022-11-28T03:51:58.097Z,12.30
2022-11-28T03:55:05.360Z,12.20
2022-11-28T03:58:47.820Z,12.20
2022-11-28T04:01:54.056Z,12.30
2022-11-28T04:05:19.224Z,12.30
2022-11-28T04:08:29.856Z,12.20
2022-11-28T04:11:39.590Z,12.20
2022-11-28T04:14:51.127Z,12.20
2022-11-28T04:18:00.773Z,12.20
2022-11-28T04:21:09.599Z,12.20
2022-11-28T04:24:18.009Z,12.20
2022-11-28T04:27:27.279Z,12.20
2022-11-28T04:30:29.763Z,12.10
2022-11-28T04:33:35.360Z,12.10
2022-11-28T04:36:40.525Z,12.10
2022-11-28T04:39:45.218Z,12.10
2022-11-28T04:42:53.103Z,12.10
2022-11-28T04:46:09.728Z,12.00
2022-11-28T04:49:12.464Z,12.00
2022-11-28T04:52:36.789Z,12.00
2022-11-28T04:55:41.882Z,12.00
2022-11-28T04:58:49.647Z,11.90
2022-11-28T05:01:51.855Z,11.90
2022-11-28T05:04:55.923Z,11.90
2022-11-28T05:07:59.830Z,11.90
2022-11-28T05:11:01.944Z,11.90
2022-11-28T05:14:04.103Z,11.80
2022-11-28T05:17:16.456Z,11.80
2022-11-28T05:20:22.931Z,11.80
2022-11-28T05:23:25.039Z,11.80
2022-11-28T05:26:27.038Z,11.80
2022-11-28T05:29:29.205Z,11.70
2022-11-28T05:32:31.509Z,11.70
2022-11-28T05:35:33.702Z,11.70
2022-11-28T05:38:35.902Z,11.70
2022-11-28T05:41:38.971Z,11.70
2022-11-28T05:44:41.046Z,11.70
2022-11-28T05:47:43.284Z,11.70
2022-11-28T05:50:45.276Z,11.60
2022-11-28T05:53:49.250Z,11.60
2022-11-28T05:56:51.358Z,11.60
2022-11-28T05:59:53.344Z,11.60
2022-11-28T06:03:01.008Z,11.60
2022-11-28T06:06:03.741Z,11.60
2022-11-28T06:09:06.249Z,11.60
2022-11-28T06:12:08.658Z,11.60
2022-11-28T06:15:11.634Z,11.60
2022-11-28T06:18:13.591Z,11.60
2022-11-28T06:21:16.606Z,11.60
2022-11-28T06:24:18.740Z,11.50
2022-11-28T06:27:20.783Z,11.60
2022-11-28T06:30:24.030Z,11.50
2022-11-28T06:33:26.283Z,11.50
2022-11-28T06:36:28.652Z,11.50
2022-11-28T06:39:30.811Z,11.50
2022-11-28T06:42:34.513Z,11.50
2022-11-28T06:45:37.689Z,11.50
2022-11-28T06:48:39.931Z,11.50
2022-11-28T06:51:42.723Z,11.50
2022-11-28T06:54:46.158Z,11.50
2022-11-28T06:57:48.237Z,11.40
2022-11-28T07:00:50.764Z,11.50
2022-11-28T07:03:54.599Z,11.50
2022-11-28T07:06:56.884Z,11.50
2022-11-28T07:09:58.877Z,11.50
2022-11-28T07:13:05.326Z,11.50
2022-11-28T07:16:12.502Z,11.50
2022-11-28T07:19:14.898Z,11.50
2022-11-28T07:22:16.921Z,11.50
2022-11-28T07:25:19.099Z,11.50
2022-11-28T07:28:23.389Z,11.50
2022-11-28T07:31:29.683Z,11.50
2022-11-28T07:34:32.815Z,11.60
2022-11-28T07:37:35.148Z,11.60
2022-11-28T07:40:37.324Z,11.60
2022-11-28T07:43:43.134Z,11.60
2022-11-28T07:46:46.165Z,11.70
2022-11-28T07:49:48.183Z,11.80
2022-11-28T07:52:51.837Z,11.90
2022-11-28T07:55:53.874Z,12.20
2022-11-28T07:59:01.992Z,12.70
2022-11-28T08:02:05.915Z,13.50
2022-11-28T08:05:08.358Z,14.40
2022-11-28T08:08:13.564Z,15.50
2022-11-28T08:11:17.577Z,16.50
2022-11-28T08:14:21.209Z,17.40
2022-11-28T08:17:24.043Z,18.00
2022-11-28T08:20:26.315Z,18.50
2022-11-28T08:23:28.322Z,19.10
2022-11-28T08:26:31.944Z,19.80
2022-11-28T08:29:33.981Z,20.60
2022-11-28T08:32:36.258Z,20.90
2022-11-28T08:35:40.347Z,21.50
2022-11-28T08:38:49.904Z,22.10
2022-11-28T08:42:05.475Z,22.40
2022-11-28T08:45:08.439Z,22.90
2022-11-28T08:48:10.435Z,23.30
2022-11-28T08:51:14.662Z,23.60
2022-11-28T08:54:16.592Z,24.30
2022-11-28T08:57:18.600Z,24.80
2022-11-28T09:00:21.156Z,25.60
2022-11-28T09:03:24.036Z,25.80
2022-11-28T09:06:26.118Z,26.10
2022-11-28T09:09:32.774Z,27.20
2022-11-28T09:12:35.256Z,27.30
2022-11-28T09:15:42.157Z,28.00
2022-11-28T09:18:44.282Z,28.30
2022-11-28T09:21:46.373Z,29.10
2022-11-28T09:24:48.494Z,29.90
2022-11-28T09:27:50.569Z,30.20
2022-11-28T09:31:00.534Z,30.20
2022-11-28T09:34:04.163Z,30.00
2022-11-28T09:37:08.622Z,29.70
2022-11-28T09:40:29.125Z,29.90
2022-11-28T09:43:32.657Z,30.20
2022-11-28T09:46:38.452Z,30.20
2022-11-28T09:49:58.354Z,30.70
2022-11-28T09:53:12.614Z,31.20
2022-11-28T09:56:21.457Z,31.20
2022-11-28T09:59:25.871Z,31.60
2022-11-28T10:02:59.964Z,32.20
2022-11-28T10:06:20.984Z,32.30
2022-11-28T10:09:29.204Z,31.70
2022-11-28T10:12:54.379Z,31.40
2022-11-28T10:16:02.540Z,32.10
2022-11-28T10:19:25.574Z,32.60
2022-11-28T10:23:09.889Z,32.80
2022-11-28T10:26:31.047Z,33.20
2022-11-28T10:29:50.708Z,33.20
2022-11-28T10:33:24.531Z,33.40
2022-11-28T10:36:47.452Z,33.50
2022-11-28T10:39:49.620Z,33.00
2022-11-28T10:43:17.542Z,33.30
2022-11-28T10:46:36.413Z,33.60
2022-11-28T10:49:57.547Z,33.50
2022-11-28T10:53:05.849Z,33.40
2022-11-28T10:56:29.492Z,33.60
2022-11-28T10:59:56.405Z,33.20
2022-11-28T11:03:02.428Z,33.20
2022-11-28T11:06:05.213Z,33.10
2022-11-28T11:09:07.362Z,33.20
2022-11-28T11:12:21.654Z,32.10
2022-11-28T11:15:33.831Z,30.60
2022-11-28T11:18:44.846Z,30.90
2022-11-28T11:22:16.609Z,30.80
2022-11-28T11:25:20.567Z,30.50
2022-11-28T11:28:28.234Z,29.20
2022-11-28T11:31:33.625Z,27.50
2022-11-28T11:34:42.593Z,27.20
2022-11-28T11:37:44.737Z,26.90
2022-11-28T11:40:47.794Z,27.50
2022-11-28T11:43:49.876Z,27.50
2022-11-28T11:46:53.422Z,27.10
2022-11-28T11:50:05.963Z,26.00
2022-11-28T11:53:10.882Z,24.70
2022-11-28T11:56:14.489Z,23.60
2022-11-28T11:59:35.342Z,22.40
2022-11-28T12:02:48.241Z,21.00
2022-11-28T12:09:54.966Z,19.70
2022-11-28T12:12:58.364Z,19.40
2022-11-28T12:16:09.218Z,19.20
2022-11-28T12:19:36.579Z,19.10
2022-11-28T12:22:38.597Z,19.10
2022-11-28T12:25:50.962Z,19.50
2022-11-28T12:29:11.719Z,19.90
2022-11-28T12:32:13.658Z,20.20
2022-11-28T12:35:15.700Z,20.10
2022-11-28T12:39:07.923Z,20.00
2022-11-28T12:42:33.959Z,19.60
2022-11-28T12:45:41.696Z,19.20
2022-11-28T12:48:53.709Z,18.90
2022-11-28T12:52:34.804Z,18.70
2022-11-28T12:55:45.693Z,18.70
2022-11-28T12:59:02.712Z,18.60
2022-11-28T13:02:38.227Z,18.40
2022-11-28T13:05:47.459Z,18.10
2022-11-28T13:09:27.012Z,17.90
2022-11-28T13:12:29.037Z,17.80
2022-11-28T13:15:46.087Z,17.70
2022-11-28T13:18:56.934Z,17.80
2022-11-28T13:22:09.776Z,17.90
2022-11-28T13:25:36.145Z,17.90
2022-11-28T13:28:56.729Z,18.00
2022-11-28T13:32:08.464Z,18.10
2022-11-28T13:35:16.258Z,18.30
2022-11-28T13:38:35.664Z,18.30
2022-11-28T13:42:28.763Z,18.20
2022-11-28T13:45:26.589Z,18.20
2022-11-28T13:49:13.099Z,18.20
2022-11-28T13:52:19.077Z,18.30
2022-11-28T13:55:47.125Z,18.30
2022-11-28T13:58:57.299Z,18.20
2022-11-28T14:02:02.917Z,18.20
2022-11-28T14:05:14.968Z,18.00
2022-11-28T14:08:35.839Z,17.90
2022-11-28T14:12:08.490Z,17.80
2022-11-28T14:15:18.786Z,17.70
2022-11-28T14:19:06.065Z,17.60
2022-11-28T14:22:39.043Z,17.60
2022-11-28T14:25:46.392Z,17.40
2022-11-28T14:28:49.438Z,17.30
2022-11-28T14:32:22.195Z,17.10
2022-11-28T14:35:50.796Z,17.00
2022-11-28T14:39:17.190Z,17.00
2022-11-28T14:42:51.790Z,17.10
2022-11-28T14:45:45.330Z,17.20
2022-11-28T14:48:59.795Z,17.40
2022-11-28T14:55:43.217Z,17.50
2022-11-28T14:58:52.487Z,17.50
2022-11-28T15:02:12.588Z,17.40
2022-11-28T15:05:23.083Z,17.30
2022-11-28T15:08:53.754Z,17.20
2022-11-28T15:12:26.261Z,17.30
2022-11-28T15:15:28.788Z,17.30
2022-11-28T15:18:32.690Z,17.20
2022-11-28T15:21:44.961Z,17.20
2022-11-28T15:24:52.031Z,17.30
2022-11-28T15:27:55.564Z,17.50
2022-11-28T15:30:59.383Z,17.60
2022-11-28T15:34:02.227Z,17.50
2022-11-28T15:37:16.415Z,17.40
2022-11-28T15:40:31.210Z,17.20
2022-11-28T15:43:44.075Z,17.00
2022-11-28T15:46:46.978Z,17.00
2022-11-28T15:50:13.689Z,16.90
2022-11-28T15:53:18.420Z,16.80
2022-11-28T15:56:20.826Z,16.90
2022-11-28T15:59:22.936Z,16.90
2022-11-28T16:02:32.825Z,16.90
2022-11-28T16:05:35.135Z,16.90
2022-11-28T16:08:41.206Z,16.90
2022-11-28T16:11:46.343Z,16.80
2022-11-28T16:14:49.626Z,16.80
2022-11-28T16:17:54.936Z,16.70
2022-11-28T16:21:00.298Z,16.60
2022-11-28T16:24:03.658Z,16.50
2022-11-28T16:27:06.857Z,16.50
2022-11-28T16:30:28.526Z,16.50
2022-11-28T16:33:44.997Z,16.40
2022-11-28T16:36:48.921Z,16.30
2022-11-28T16:40:14.840Z,16.30
2022-11-28T16:43:22.752Z,16.20
2022-11-28T16:46:29.959Z,16.20
2022-11-28T16:49:31.923Z,16.10
2022-11-28T16:52:48.924Z,16.10
2022-11-28T16:55:51.387Z,16.00
2022-11-28T16:59:07.787Z,16.00
2022-11-28T17:02:15.857Z,16.00
2022-11-28T17:05:18.607Z,15.90
2022-11-28T17:08:20.672Z,15.80
2022-11-28T17:11:26.677Z,15.70
2022-11-28T17:14:28.706Z,15.70
2022-11-28T17:17:31.992Z,15.60
2022-11-28T17:20:34.958Z,15.60
2022-11-28T17:23:37.124Z,15.60
2022-11-28T17:26:41.838Z,15.50
2022-11-28T17:29:44.876Z,15.50
2022-11-28T17:32:48.315Z,15.40
2022-11-28T17:35:53.588Z,15.40
2022-11-28T17:38:56.494Z,15.30
2022-11-28T17:42:01.106Z,15.20
2022-11-28T17:45:03.443Z,15.20
2022-11-28T17:48:06.053Z,15.10
2022-11-28T17:51:10.223Z,15.10
2022-11-28T17:54:25.585Z,15.00
2022-11-28T17:57:33.852Z,15.00
2022-11-28T18:00:35.993Z,14.90
2022-11-28T18:03:38.680Z,14.90
2022-11-28T18:06:44.478Z,14.80
2022-11-28T18:09:46.749Z,14.70
2022-11-28T18:12:48.963Z,14.70
2022-11-28T18:15:53.886Z,14.60
2022-11-28T18:18:56.253Z,14.60
2022-11-28T18:21:58.229Z,14.60
2022-11-28T18:25:00.540Z,14.60
2022-11-28T18:28:02.624Z,14.50
2022-11-28T18:31:21.237Z,14.50
2022-11-28T18:34:23.277Z,14.40
2022-11-28T18:37:25.357Z,14.40
2022-11-28T18:40:27.482Z,14.40
2022-11-28T18:43:29.536Z,14.30
2022-11-28T18:46:33.076Z,14.30
2022-11-28T18:49:35.218Z,14.30
2022-11-28T18:52:40.387Z,14.30
2022-11-28T18:55:43.036Z,14.20
2022-11-28T18:58:48.031Z,14.20
2022-11-28T19:01:52.513Z,14.20
2022-11-28T19:04:55.870Z,14.10
2022-11-28T19:07:58.167Z,14.10
2022-11-28T19:11:06.805Z,14.10
2022-11-28T19:14:10.741Z,14.00
2022-11-28T19:17:13.024Z,14.00
2022-11-28T19:20:15.494Z,14.00
2022-11-28T19:23:18.086Z,14.00
2022-11-28T19:26:22.706Z,14.00
2022-11-28T19:29:25.360Z,14.00
2022-11-28T19:32:27.417Z,13.90
2022-11-28T19:35:29.461Z,13.90
2022-11-28T19:38:33.047Z,13.90
2022-11-28T19:41:35.280Z,13.90
2022-11-28T19:44:37.337Z,13.90
2022-11-28T19:47:39.520Z,13.90
2022-11-28T19:50:51.096Z,13.80
2022-11-28T19:53:55.364Z,13.80
2022-11-28T19:57:00.709Z,13.90
2022-11-28T20:00:04.019Z,13.90
2022-11-28T20:03:06.483Z,13.80
2022-11-28T20:06:19.400Z,13.80
2022-11-28T20:09:21.437Z,13.70
2022-11-28T20:12:23.436Z,13.70
2022-11-28T20:15:25.398Z,13.70
2022-11-28T20:18:27.426Z,13.70
2022-11-28T20:21:30.756Z,13.70
2022-11-28T20:24:33.046Z,13.70
2022-11-28T20:27:35.324Z,13.60
2022-11-28T20:30:37.375Z,13.70
2022-11-28T20:33:39.424Z,13.60
2022-11-28T20:36:41.632Z,13.60
2022-11-28T20:39:43.913Z,13.60
2022-11-28T20:42:46.416Z,13.60
2022-11-28T20:45:48.652Z,13.50
2022-11-28T20:48:51.670Z,13.50
2022-11-28T20:51:53.979Z,13.50
2022-11-28T20:54:56.229Z,13.40
2022-11-28T20:57:58.278Z,13.40
2022-11-28T21:01:00.629Z,13.40
2022-11-28T21:04:05.377Z,13.40
2022-11-28T21:07:07.482Z,13.40
2022-11-28T21:10:09.871Z,13.40
2022-11-28T21:13:13.231Z,13.40
2022-11-28T21:16:17.979Z,13.30
2022-11-28T21:19:20.205Z,13.40
2022-11-28T21:22:24.763Z,13.40
2022-11-28T21:25:26.866Z,13.40
2022-11-28T21:28:28.889Z,13.30
2022-11-28T21:31:34.387Z,13.40
2022-11-28T21:34:36.856Z,13.30
2022-11-28T21:37:39.023Z,13.30
2022-11-28T21:40:41.049Z,13.30
2022-11-28T21:43:42.997Z,13.30
2022-11-28T21:46:45.044Z,13.30
2022-11-28T21:49:47.175Z,13.30
2022-11-28T21:52:49.407Z,13.30
2022-11-28T21:55:52.149Z,13.30
2022-11-28T21:58:54.561Z,13.30
2022-11-28T22:01:57.029Z,13.30
2022-11-28T22:05:00.150Z,13.30
2022-11-28T22:08:02.335Z,13.30
2022-11-28T22:11:13.351Z,13.20
2022-11-28T22:14:15.788Z,13.20
2022-11-28T22:17:17.869Z,13.20
2022-11-28T22:20:19.961Z,13.20
2022-11-28T22:23:22.071Z,13.20
2022-11-28T22:26:24.112Z,13.20
2022-11-28T22:29:26.136Z,13.10
2022-11-28T22:32:28.456Z,13.20
2022-11-28T22:35:31.099Z,13.10
2022-11-28T22:38:33.160Z,13.10
2022-11-28T22:41:35.600Z,13.10
2022-11-28T22:44:37.545Z,13.10
2022-11-28T22:47:39.622Z,13.10
2022-11-28T22:50:43.240Z,13.10
2022-11-28T22:53:45.697Z,13.10
2022-11-28T22:56:47.719Z,13.00
2022-11-28T22:59:49.775Z,13.00
2022-11-28T23:02:51.904Z,13.00
2022-11-28T23:05:54.115Z,13.00
2022-11-28T23:08:57.859Z,12.90
2022-11-28T23:12:01.381Z,12.90
2022-11-28T23:15:04.250Z,12.90
2022-11-28T23:18:06.579Z,12.90
2022-11-28T23:21:10.691Z,12.90
2022-11-28T23:24:18.532Z,12.90
2022-11-28T23:27:20.570Z,12.90
2022-11-28T23:30:22.642Z,12.90
2022-11-28T23:33:25.939Z,12.80
2022-11-28T23:36:40.078Z,12.70
2022-11-28T23:39:44.003Z,12.70
2022-11-28T23:42:46.768Z,12.80
2022-11-28T23:45:48.912Z,12.70
2022-11-28T23:48:51.645Z,12.70
2022-11-28T23:51:53.613Z,12.70
2022-11-28T23:54:57.681Z,12.70
2022-11-28T23:58:01.164Z,12.70
